Brewster, NE (68821)

3:15 PM CST on February 11, 2016 (GMT -0600)
Broken Bow Municipal | | Change Station
CLOSE
Current Station
Airport
Location: Broken Bow,
Elevation: 2546 ft
Nearby Weather Stations
Active Advisory: Special Statement

Elev 2546 ft 41.44 °N, 99.64 °W | Updated 22 minutes ago

Partly Cloudy
Partly Cloudy
38 °F
Feels Like 30 °F
N
12
Wind Variable Wind from SSW

Today
High -- | Low -- °F
--% Chance of Precip.
Yesterday
High -- | Low -- °F
Precip. -- in
Pressure 30.09 in
Visibility 10.0 miles
Clouds Clear
Windchill 30 °F
Dew Point 31 °F
Humidity 76%
Rainfall 0.00 in
Snow Depth Not available.
7:40 AM 6:06 PM
Waxing Crescent, 14% visible
METAR KBBW 112053Z AUTO 21010KT 10SM CLR 03/M01 A3003 RMK AO2 SLP187 T00331006 58024
Pressure 30.09 in
Visibility 10.0 miles
Clouds Clear
Windchill 30 °F
Dew Point 31 °F
Humidity 76%
Rainfall 0.00 in
Snow Depth Not available.
7:40 AM 6:06 PM
Waxing Crescent, 14% visible
METAR KBBW 112053Z AUTO 21010KT 10SM CLR 03/M01 A3003 RMK AO2 SLP187 T00331006 58024

10-Day Weather Forecast

Almanac

Astronomy

Feb. 11, 2016 Rise Set
Actual Time
Civil Twilight
Nautical Twilight
Astronomical Twilight
Moon
Length of Visible Light
Length of Day
Tomorrow will be .
, % of the Moon is Illuminated

Today's Extremes

State Highs State Lows

Community

WunderPhotos

Upload Photos

1,892,159 photos uploaded!

WunderBlog® & News

Nearby

Air Quality

  Air Quality AQ Index Pollutant
Not available.

Snow Depth

Station Depth Elevation

Earthquake Activity

City Distance Mag. Time & Date
Minimum magnitude displayed is 2.5.

Coastal Water Temperatures

Place Temperature

Stations

Nearby Weather Stations

Station Location Temp. Windchill Dew Point Humidity Wind Precip. Elev Updated Type
                   

Watches & Warnings

Special Statement
Issued: 1:34 PM MST Feb. 11, 2016 – National Weather Service

... Patchy freezing drizzle possible tonight... then again Friday
night into midday Saturday...

An Arctic cold front will track west from northeastern
Nebraska... into central and western Nebraska tonight into Friday.
As this front backs into western and north central Nebraska from
the east... patchy freezing drizzle may develop across the area.
This front will stall across the Nebraska Panhandle Friday
night... then lift east on Saturday. As this front lifts east as a
warm front... patchy freezing drizzle will be possible once again
from the overnight hours Friday night... into Saturday morning.

Motorists planning travel tonight into tomorrow morning... as well
as Friday night into Saturday morning... should be prepared for
possible slick spots on roadways.


Clb